Patcona II — WDC2170 — position and weather

sailwx.info

Track history (hours):
 
Tides and Currents Weather Stations Pressure Air Temp Water Temp Dewpoint Dewpoint Depression Visibility Wind Speed Wind Dir Waves Ship Positions

Patcona II

Owner: Connolly-Pacific Co, long beach, CA. More information available from US FCC via Universal Licensing System and Coast Guard Vessel Documentation Center.

Last reported at 2016-Dec-09 02:33 UTC. Time now 2016-Dec-09 03:56 UTC.
Position N 33°46' W 118°13'.

; draft 9 m.

Type: Towing. MMSI: 366988960.

Date/timePositionNaut miles runAvg speedWind from/ knotsBaromVisibWave heightAir tempDewpointWater temp
2016-Dec-09 02:33N 33°46' W 118°13'0 0.1
2016-Dec-09 01:33N 33°46' W 118°13'120137584.4
2016-Dec-09 01:31N 29°45' W 095°10'12011237.0
2016-Dec-09 00:33N 33°46' W 118°13'0 0.0
2016-Dec-08 23:33N 33°46' W 118°13'0 0.0
2016-Dec-08 22:33N 33°46' W 118°13'0 0.0
2016-Dec-08 21:31N 33°46' W 118°13'0 0.0
2016-Dec-08 20:28N 33°46' W 118°13'1204630.4
2016-Dec-08 18:33N 29°46' W 095°05'1 1.4
2016-Dec-08 17:34N 29°45' W 095°06'1204865.6
2016-Dec-08 16:10N 33°46' W 118°13'120414642.1
2016-Dec-08 16:05N 29°45' W 095°06'0 0.1
2016-Dec-08 15:33N 29°45' W 095°06'12041005.5
2016-Dec-08 14:21N 33°46' W 118°13'0 0.0
2016-Dec-08 13:32N 33°46' W 118°13'0 0.0
2016-Dec-08 08:27N 33°46' W 118°13'1204118.6
2016-Dec-07 22:18N 29°45' W 095°06'0 0.0
2016-Dec-07 20:33N 29°45' W 095°06'0 0.0
2016-Dec-07 19:24N 29°45' W 095°06'0 0.0
2016-Dec-07 18:33N 29°45' W 095°06'4 3.4
2016-Dec-07 17:31N 29°45' W 095°10'1 0.5
2016-Dec-07 15:30N 29°45' W 095°11'0 0.0
2016-Dec-07 05:18N 29°45' W 095°11'5 0.8
2016-Dec-06 23:06N 29°46' W 095°05'0 0.0
2016-Dec-06 22:29N 29°46' W 095°05'1 0.8
2016-Dec-06 21:30N 29°46' W 095°06'0 0.1
2016-Dec-06 20:34N 29°46' W 095°06'0 0.0
2016-Dec-06 18:34N 29°46' W 095°06'1 0.8
2016-Dec-06 17:34N 29°46' W 095°05'6 2.0
2016-Dec-06 14:33N 29°45' W 095°12'5 0.6
2016-Dec-06 06:31N 29°44' W 095°07'3 0.4
2016-Dec-05 21:32N 29°45' W 095°10'1198279.3
2016-Dec-05 17:14N 33°43' W 118°11'3 3.7
2016-Dec-05 16:29N 33°45' W 118°13'1 0.6
2016-Dec-05 15:33N 33°46' W 118°13'0 0.0
2016-Dec-05 14:05N 33°46' W 118°13'0 0.0
2016-Dec-05 13:28N 33°46' W 118°13'0 0.0
2016-Dec-05 12:33N 33°46' W 118°13'0 0.0
2016-Dec-05 11:34N 33°46' W 118°13'0 0.0
2016-Dec-05 10:34N 33°46' W 118°13'0 0.0
2016-Dec-05 09:34N 33°46' W 118°13'0 0.0
2016-Dec-05 08:34N 33°46' W 118°13'0 0.0
2016-Dec-05 07:34N 33°46' W 118°13'0 0.0
2016-Dec-05 06:34N 33°46' W 118°13'0 0.0
2016-Dec-05 05:34N 33°46' W 118°13'0 0.0
2016-Dec-05 04:32N 33°46' W 118°13'0 0.0
2016-Dec-05 03:33N 33°46' W 118°13'1202946.3
2016-Dec-05 02:17N 29°44' W 095°09'12026188.4
2016-Dec-05 02:05N 33°46' W 118°13'0 0.0
2016-Dec-05 01:32N 33°46' W 118°13'0 0.0
2016-Dec-05 00:29N 33°46' W 118°13'0 0.0
2016-Dec-04 23:21N 33°46' W 118°13'0 0.0
2016-Dec-04 22:29N 33°46' W 118°13'0 0.0
2016-Dec-04 21:15N 33°46' W 118°13'0 0.0
2016-Dec-04 20:33N 33°46' W 118°13'0 0.0
2016-Dec-04 19:31N 33°46' W 118°13'0 0.1
2016-Dec-04 18:33N 33°46' W 118°13'0 0.0
2016-Dec-04 17:32N 33°46' W 118°13'0 0.0
2016-Dec-04 16:34N 33°46' W 118°13'0 0.0
2016-Dec-04 15:33N 33°46' W 118°13'0 0.0
2016-Dec-04 14:34N 33°46' W 118°13'0 0.0
2016-Dec-04 13:34N 33°46' W 118°13'0 0.0
2016-Dec-04 12:33N 33°46' W 118°13'0 0.0
2016-Dec-04 11:33N 33°46' W 118°13'0 0.0
2016-Dec-04 10:34N 33°46' W 118°13'0 0.0
2016-Dec-04 09:33N 33°46' W 118°13'0 0.0
2016-Dec-04 08:33N 33°46' W 118°13'0 0.0
2016-Dec-04 07:34N 33°46' W 118°13'0 0.0
2016-Dec-04 06:33N 33°46' W 118°13'0 0.0
2016-Dec-04 05:33N 33°46' W 118°13'0 0.0
2016-Dec-04 04:21N 33°46' W 118°13'0 0.0
2016-Dec-04 03:24N 33°46' W 118°13'0 0.0
2016-Dec-04 02:29N 33°46' W 118°13'0 0.0
2016-Dec-04 01:32N 33°46' W 118°13'0 0.0
2016-Dec-04 00:04N 33°46' W 118°13'0 0.0
2016-Dec-03 23:18N 33°46' W 118°13'0 0.0
2016-Dec-03 22:33N 33°46' W 118°13'0 0.0
2016-Dec-03 21:33N 33°46' W 118°13'12041111.6
2016-Dec-03 20:28N 29°45' W 095°06'1 0.3
2016-Dec-03 17:22N 29°45' W 095°06'3 3.0
2016-Dec-03 16:31N 29°44' W 095°03'0 0.0
2016-Dec-03 04:27N 29°44' W 095°03'0 0.0
2016-Dec-02 22:33N 29°44' W 095°03'0 0.0
2016-Dec-02 21:33N 29°44' W 095°03'0 0.0
2016-Dec-02 20:28N 29°44' W 095°03'0 0.0
2016-Dec-02 19:33N 29°44' W 095°03'1 0.8
2016-Dec-02 18:33N 29°44' W 095°02'3 3.4
2016-Dec-02 17:33N 29°41' W 095°00'0 0.0
2016-Dec-02 16:33N 29°41' W 095°00'0 0.0
2016-Dec-02 15:34N 29°41' W 095°00'0 0.0
2016-Dec-02 14:33N 29°41' W 095°00'0 0.0
2016-Dec-02 13:34N 29°41' W 095°00'12101059.0
2016-Dec-02 12:25N 33°46' W 118°13'0 0.0
2016-Dec-02 11:24N 33°46' W 118°13'0 0.0
2016-Dec-02 10:18N 33°46' W 118°13'0 0.0
2016-Dec-02 08:19N 33°46' W 118°13'1 0.1
2016-Dec-01 22:31N 33°47' W 118°13'0 0.0
2016-Dec-01 21:33N 33°47' W 118°13'1 0.0
2016-Dec-01 08:20N 33°46' W 118°13'0 0.0
2016-Dec-01 07:25N 33°46' W 118°13'0 0.0
2016-Dec-01 04:09N 33°46' W 118°13'0 0.0
2016-Dec-01 03:33N 33°46' W 118°13'0 0.0
2016-Dec-01 02:22N 33°46' W 118°13'0 0.0
2016-Dec-01 01:33N 33°46' W 118°13'0 0.0
2016-Dec-01 00:28N 33°46' W 118°13'0 0.0
2016-Nov-30 22:33N 33°46' W 118°13'120370.5
2016-Nov-30 05:29N 29°47' W 095°06'1203397.8
2016-Nov-30 02:27N 33°46' W 118°13'0 0.0
2016-Nov-30 01:34N 33°46' W 118°13'0 0.0
2016-Nov-30 00:31N 33°46' W 118°13'0 0.0
2016-Nov-29 23:33N 33°46' W 118°13'0 0.0
2016-Nov-29 22:26N 33°46' W 118°13'12046646.5
2016-Nov-29 22:15N 29°45' W 095°06'2 0.3
2016-Nov-29 16:33N 29°44' W 095°08'1203154632.3
2016-Nov-29 16:33N 33°46' W 118°13'12031205.0
2016-Nov-29 15:33N 29°44' W 095°08'120375960.1
2016-Nov-29 15:32N 33°46' W 118°13'0 0.0
2016-Nov-29 14:34N 33°46' W 118°13'0 0.0
2016-Nov-29 13:32N 33°46' W 118°13'0 0.0
2016-Nov-29 12:33N 33°46' W 118°13'  
Track history (hours):
 
Tides and Currents Weather Stations Pressure Air Temp Water Temp Dewpoint Dewpoint Depression Visibility Wind Speed Wind Dir Waves Ship Positions

Patcona II

Owner: Connolly-Pacific Co, long beach, CA. More information available from US FCC via Universal Licensing System and Coast Guard Vessel Documentation Center.

Last reported at 2016-Dec-09 02:33 UTC. Time now 2016-Dec-09 03:56 UTC.
Position N 33°46' W 118°13'.

; draft 9 m.

Type: Towing. MMSI: 366988960.

Date/timePositionNaut miles runAvg speedWind from/ knotsBaromVisibWave heightAir tempDewpointWater temp
2016-Dec-09 02:33N 33°46' W 118°13'0 0.1
2016-Dec-09 01:33N 33°46' W 118°13'120137584.4
2016-Dec-09 01:31N 29°45' W 095°10'12011237.0
2016-Dec-09 00:33N 33°46' W 118°13'0 0.0
2016-Dec-08 23:33N 33°46' W 118°13'0 0.0
2016-Dec-08 22:33N 33°46' W 118°13'0 0.0
2016-Dec-08 21:31N 33°46' W 118°13'0 0.0
2016-Dec-08 20:28N 33°46' W 118°13'1204630.4
2016-Dec-08 18:33N 29°46' W 095°05'1 1.4
2016-Dec-08 17:34N 29°45' W 095°06'1204865.6
2016-Dec-08 16:10N 33°46' W 118°13'120414642.1
2016-Dec-08 16:05N 29°45' W 095°06'0 0.1
2016-Dec-08 15:33N 29°45' W 095°06'12041005.5
2016-Dec-08 14:21N 33°46' W 118°13'0 0.0
2016-Dec-08 13:32N 33°46' W 118°13'0 0.0
2016-Dec-08 08:27N 33°46' W 118°13'1204118.6
2016-Dec-07 22:18N 29°45' W 095°06'0 0.0
2016-Dec-07 20:33N 29°45' W 095°06'0 0.0
2016-Dec-07 19:24N 29°45' W 095°06'0 0.0
2016-Dec-07 18:33N 29°45' W 095°06'4 3.4
2016-Dec-07 17:31N 29°45' W 095°10'1 0.5
2016-Dec-07 15:30N 29°45' W 095°11'0 0.0
2016-Dec-07 05:18N 29°45' W 095°11'5 0.8
2016-Dec-06 23:06N 29°46' W 095°05'0 0.0
2016-Dec-06 22:29N 29°46' W 095°05'1 0.8
2016-Dec-06 21:30N 29°46' W 095°06'0 0.1
2016-Dec-06 20:34N 29°46' W 095°06'0 0.0
2016-Dec-06 18:34N 29°46' W 095°06'1 0.8
2016-Dec-06 17:34N 29°46' W 095°05'6 2.0
2016-Dec-06 14:33N 29°45' W 095°12'5 0.6
2016-Dec-06 06:31N 29°44' W 095°07'3 0.4
2016-Dec-05 21:32N 29°45' W 095°10'1198279.3
2016-Dec-05 17:14N 33°43' W 118°11'3 3.7
2016-Dec-05 16:29N 33°45' W 118°13'1 0.6
2016-Dec-05 15:33N 33°46' W 118°13'0 0.0
2016-Dec-05 14:05N 33°46' W 118°13'0 0.0
2016-Dec-05 13:28N 33°46' W 118°13'0 0.0
2016-Dec-05 12:33N 33°46' W 118°13'0 0.0
2016-Dec-05 11:34N 33°46' W 118°13'0 0.0
2016-Dec-05 10:34N 33°46' W 118°13'0 0.0
2016-Dec-05 09:34N 33°46' W 118°13'0 0.0
2016-Dec-05 08:34N 33°46' W 118°13'0 0.0
2016-Dec-05 07:34N 33°46' W 118°13'0 0.0
2016-Dec-05 06:34N 33°46' W 118°13'0 0.0
2016-Dec-05 05:34N 33°46' W 118°13'0 0.0
2016-Dec-05 04:32N 33°46' W 118°13'0 0.0
2016-Dec-05 03:33N 33°46' W 118°13'1202946.3
2016-Dec-05 02:17N 29°44' W 095°09'12026188.4
2016-Dec-05 02:05N 33°46' W 118°13'0 0.0
2016-Dec-05 01:32N 33°46' W 118°13'0 0.0
2016-Dec-05 00:29N 33°46' W 118°13'0 0.0
2016-Dec-04 23:21N 33°46' W 118°13'0 0.0
2016-Dec-04 22:29N 33°46' W 118°13'0 0.0
2016-Dec-04 21:15N 33°46' W 118°13'0 0.0
2016-Dec-04 20:33N 33°46' W 118°13'0 0.0
2016-Dec-04 19:31N 33°46' W 118°13'0 0.1
2016-Dec-04 18:33N 33°46' W 118°13'0 0.0
2016-Dec-04 17:32N 33°46' W 118°13'0 0.0
2016-Dec-04 16:34N 33°46' W 118°13'0 0.0
2016-Dec-04 15:33N 33°46' W 118°13'0 0.0
2016-Dec-04 14:34N 33°46' W 118°13'0 0.0
2016-Dec-04 13:34N 33°46' W 118°13'0 0.0
2016-Dec-04 12:33N 33°46' W 118°13'0 0.0
2016-Dec-04 11:33N 33°46' W 118°13'0 0.0
2016-Dec-04 10:34N 33°46' W 118°13'0 0.0
2016-Dec-04 09:33N 33°46' W 118°13'0 0.0
2016-Dec-04 08:33N 33°46' W 118°13'0 0.0
2016-Dec-04 07:34N 33°46' W 118°13'0 0.0
2016-Dec-04 06:33N 33°46' W 118°13'0 0.0
2016-Dec-04 05:33N 33°46' W 118°13'0 0.0
2016-Dec-04 04:21N 33°46' W 118°13'0 0.0
2016-Dec-04 03:24N 33°46' W 118°13'0 0.0
2016-Dec-04 02:29N 33°46' W 118°13'0 0.0
2016-Dec-04 01:32N 33°46' W 118°13'0 0.0
2016-Dec-04 00:04N 33°46' W 118°13'0 0.0
2016-Dec-03 23:18N 33°46' W 118°13'0 0.0
2016-Dec-03 22:33N 33°46' W 118°13'0 0.0
2016-Dec-03 21:33N 33°46' W 118°13'12041111.6
2016-Dec-03 20:28N 29°45' W 095°06'1 0.3
2016-Dec-03 17:22N 29°45' W 095°06'3 3.0
2016-Dec-03 16:31N 29°44' W 095°03'0 0.0
2016-Dec-03 04:27N 29°44' W 095°03'0 0.0
2016-Dec-02 22:33N 29°44' W 095°03'0 0.0
2016-Dec-02 21:33N 29°44' W 095°03'0 0.0
2016-Dec-02 20:28N 29°44' W 095°03'0 0.0
2016-Dec-02 19:33N 29°44' W 095°03'1 0.8
2016-Dec-02 18:33N 29°44' W 095°02'3 3.4
2016-Dec-02 17:33N 29°41' W 095°00'0 0.0
2016-Dec-02 16:33N 29°41' W 095°00'0 0.0
2016-Dec-02 15:34N 29°41' W 095°00'0 0.0
2016-Dec-02 14:33N 29°41' W 095°00'0 0.0
2016-Dec-02 13:34N 29°41' W 095°00'12101059.0
2016-Dec-02 12:25N 33°46' W 118°13'0 0.0
2016-Dec-02 11:24N 33°46' W 118°13'0 0.0
2016-Dec-02 10:18N 33°46' W 118°13'0 0.0
2016-Dec-02 08:19N 33°46' W 118°13'1 0.1
2016-Dec-01 22:31N 33°47' W 118°13'0 0.0
2016-Dec-01 21:33N 33°47' W 118°13'1 0.0
2016-Dec-01 08:20N 33°46' W 118°13'0 0.0
2016-Dec-01 07:25N 33°46' W 118°13'0 0.0
2016-Dec-01 04:09N 33°46' W 118°13'0 0.0
2016-Dec-01 03:33N 33°46' W 118°13'0 0.0
2016-Dec-01 02:22N 33°46' W 118°13'0 0.0
2016-Dec-01 01:33N 33°46' W 118°13'0 0.0
2016-Dec-01 00:28N 33°46' W 118°13'0 0.0
2016-Nov-30 22:33N 33°46' W 118°13'120370.5
2016-Nov-30 05:29N 29°47' W 095°06'1203397.8
2016-Nov-30 02:27N 33°46' W 118°13'0 0.0
2016-Nov-30 01:34N 33°46' W 118°13'0 0.0
2016-Nov-30 00:31N 33°46' W 118°13'0 0.0
2016-Nov-29 23:33N 33°46' W 118°13'0 0.0
2016-Nov-29 22:26N 33°46' W 118°13'12046646.5
2016-Nov-29 22:15N 29°45' W 095°06'2 0.3
2016-Nov-29 16:33N 29°44' W 095°08'1203154632.3
2016-Nov-29 16:33N 33°46' W 118°13'12031205.0
2016-Nov-29 15:33N 29°44' W 095°08'120375960.1
2016-Nov-29 15:32N 33°46' W 118°13'0 0.0
2016-Nov-29 14:34N 33°46' W 118°13'0 0.0
2016-Nov-29 13:32N 33°46' W 118°13'0 0.0
2016-Nov-29 12:33N 33°46' W 118°13'  

Dump ship's entire track history